Time;durP1;ratioP1;P1;durP2;ratioP2;P2;SDS_P1;SDS_P2;PMS_P1;PMS_P2;Temp;Humidity;BMP_temperature;BMP_pressure;BME280_temperature;BME280_humidity;BME280_pressure;Samples;Min_cycle;Max_cycle;Signal;HPM_P1;HPM_P2
2023/08/30 00:02:20;;;;;;;8.30;7.60;;;;;;;14.99;100.00;95339.38;6273874;22;20219;-87
2023/08/30 00:04:47;;;;;;;8.00;7.30;;;;;;;14.92;100.00;95346.38;6274607;22;20175;-85
2023/08/30 00:07:13;;;;;;;8.70;7.90;;;;;;;14.98;100.00;95348.16;6274005;22;20230;-85
2023/08/30 00:09:40;;;;;;;8.55;7.78;;;;;;;14.97;100.00;95342.19;6274270;22;20780;-85
2023/08/30 00:12:06;;;;;;;8.23;7.47;;;;;;;14.98;100.00;95345.56;6273735;22;20176;-84
2023/08/30 00:14:36;;;;;;;8.60;7.90;;;;;;;15.00;100.00;95336.56;6273655;22;20223;-84
2023/08/30 00:17:07;;;;;;;8.25;7.53;;;;;;;15.00;100.00;95335.78;6273697;22;20184;-85
2023/08/30 00:19:34;;;;;;;8.55;7.85;;;;;;;14.95;100.00;95333.03;6274278;22;20295;-87
2023/08/30 00:22:00;;;;;;;7.95;7.25;;;;;;;14.95;100.00;95331.22;6274268;22;20257;-87
2023/08/30 00:24:28;;;;;;;8.73;8.02;;;;;;;14.96;100.00;95329.41;6273922;22;20172;-87
2023/08/30 00:26:55;;;;;;;8.13;7.38;;;;;;;14.94;100.00;95346.97;6273297;22;20176;-86
2023/08/30 00:29:21;;;;;;;7.93;7.22;;;;;;;14.91;100.00;95355.16;6273190;22;20192;-85
2023/08/30 00:31:47;;;;;;;8.50;7.80;;;;;;;14.86;100.00;95340.22;6273295;22;20819;-87
2023/08/30 00:34:14;;;;;;;8.43;7.72;;;;;;;14.83;100.00;95354.41;6272727;22;20192;-87
2023/08/30 00:36:42;;;;;;;7.72;7.03;;;;;;;14.80;100.00;95347.06;6272562;22;20183;-86
2023/08/30 00:39:09;;;;;;;8.43;7.55;;;;;;;14.85;100.00;95342.03;6273173;22;20197;-87
2023/08/30 00:41:35;;;;;;;8.32;7.57;;;;;;;14.85;100.00;95331.66;6273025;22;20206;-87
2023/08/30 00:44:02;;;;;;;7.40;6.70;;;;;;;14.84;100.00;95335.25;6272997;22;20671;-87
2023/08/30 00:46:32;;;;;;;7.80;7.20;;;;;;;14.87;100.00;95336.66;6272945;22;20183;-84
2023/08/30 00:48:59;;;;;;;7.68;7.07;;;;;;;14.88;100.00;95337.44;6273230;22;20579;-84
2023/08/30 00:51:26;;;;;;;7.45;6.80;;;;;;;14.88;100.00;95340.03;6272807;22;20172;-85
2023/08/30 00:53:55;;;;;;;8.75;7.85;;;;;;;14.89;100.00;95333.84;6273413;22;20199;-85
2023/08/30 00:56:21;;;;;;;7.80;7.20;;;;;;;14.89;100.00;95324.28;6272467;22;20639;-84
2023/08/30 00:58:50;;;;;;;7.47;6.88;;;;;;;14.93;100.00;95332.44;6273132;22;20192;-85
2023/08/30 01:01:17;;;;;;;7.95;7.20;;;;;;;14.93;100.00;95324.66;6273629;22;20176;-85
2023/08/30 01:03:52;;;;;;;7.60;7.00;;;;;;;14.97;100.00;95318.06;6273730;22;20172;-85
2023/08/30 01:06:19;;;;;;;7.80;7.20;;;;;;;14.92;100.00;95328.25;6273817;22;20163;-87
2023/08/30 01:08:45;;;;;;;7.65;6.90;;;;;;;14.89;100.00;95324.28;6272640;22;20212;-87
2023/08/30 01:11:20;;;;;;;7.85;7.25;;;;;;;14.89;100.00;95328.66;6272650;22;20172;-87
2023/08/30 01:13:54;;;;;;;8.20;7.50;;;;;;;14.89;100.00;95326.06;6273084;22;20176;-87
2023/08/30 01:16:24;;;;;;;7.40;6.80;;;;;;;14.85;100.00;95326.47;6274115;22;20160;-87
2023/08/30 01:18:55;;;;;;;7.53;6.93;;;;;;;14.84;100.00;95322.31;6273949;22;20203;-86
2023/08/30 01:21:27;;;;;;;7.00;6.47;;;;;;;14.86;100.00;95322.09;6274774;22;20156;-87
2023/08/30 01:24:00;;;;;;;7.53;6.93;;;;;;;14.79;100.00;95324.75;6273018;22;20156;-85
2023/08/30 01:26:40;;;;;;;7.18;6.57;;;;;;;14.79;100.00;95313.59;6274429;22;20160;-85
2023/08/30 01:29:10;;;;;;;7.85;7.15;;;;;;;14.75;100.00;95320.19;6274450;22;20705;-86
2023/08/30 01:31:39;;;;;;;7.55;6.95;;;;;;;14.67;100.00;95318.63;6274902;22;20179;-85
2023/08/30 01:34:05;;;;;;;7.22;6.63;;;;;;;14.71;100.00;95319.78;6275678;22;20196;-85
2023/08/30 01:36:32;;;;;;;7.10;6.50;;;;;;;14.73;100.00;95312.63;6274661;22;20183;-84
2023/08/30 01:39:00;;;;;;;7.45;6.85;;;;;;;14.74;100.00;95306.44;6273920;22;20196;-85
2023/08/30 01:41:27;;;;;;;7.18;6.47;;;;;;;14.77;100.00;95311.19;6273791;22;20176;-87
2023/08/30 01:43:54;;;;;;;6.70;6.20;;;;;;;14.77;100.00;95311.19;6273623;22;20203;-87
2023/08/30 01:46:23;;;;;;;7.05;6.45;;;;;;;14.77;100.00;95311.19;6273906;22;20184;-85
2023/08/30 01:48:50;;;;;;;6.50;6.00;;;;;;;14.81;100.00;95307.19;6274060;22;20196;-84
2023/08/30 01:51:17;;;;;;;7.07;6.43;;;;;;;14.79;100.00;95306.59;6273539;22;20639;-85
2023/08/30 01:53:45;;;;;;;7.10;6.40;;;;;;;14.84;100.00;95298.97;6272938;22;20207;-84
2023/08/30 01:56:11;;;;;;;7.00;6.32;;;;;;;14.84;100.00;95296.38;6272708;22;20207;-85
2023/08/30 01:58:38;;;;;;;6.07;5.55;;;;;;;14.80;100.00;95290.06;6272697;22;20570;-85
2023/08/30 02:01:04;;;;;;;6.53;6.03;;;;;;;14.80;100.00;95291.84;6274850;22;20488;-85
2023/08/30 02:03:32;;;;;;;6.72;6.10;;;;;;;14.82;100.00;95295.78;6273967;22;20176;-88
2023/08/30 02:06:09;;;;;;;6.40;5.90;;;;;;;14.81;100.00;95298.63;6273603;22;20176;-86
2023/08/30 02:08:39;;;;;;;6.43;5.93;;;;;;;14.79;100.00;95288.47;6274574;22;20195;-86
2023/08/30 02:11:11;;;;;;;6.50;6.00;;;;;;;14.83;100.00;95284.41;6273462;22;20160;-85
2023/08/30 02:13:40;;;;;;;6.60;6.00;;;;;;;14.79;100.00;95292.84;6274416;22;20181;-87
2023/08/30 02:16:08;;;;;;;6.22;5.72;;;;;;;14.82;100.00;95297.59;6274478;22;20179;-85
2023/08/30 02:18:37;;;;;;;6.40;5.90;;;;;;;14.79;100.00;95296.22;6273874;22;20196;-84
2023/08/30 02:21:04;;;;;;;6.55;5.95;;;;;;;14.75;100.00;95292.47;6273864;22;20172;-87
2023/08/30 02:23:30;;;;;;;6.47;5.97;;;;;;;14.76;100.00;95294.06;6273316;22;20489;-87
2023/08/30 02:25:57;;;;;;;6.60;6.10;;;;;;;14.78;100.00;95296.44;6272977;22;20176;-84
2023/08/30 02:28:23;;;;;;;9.07;8.20;;;;;;;14.73;100.00;95310.03;6272965;22;20199;-85
2023/08/30 02:30:51;;;;;;;7.00;6.40;;;;;;;14.73;100.00;95310.03;6273634;22;20180;-85
2023/08/30 02:33:17;;;;;;;6.38;5.88;;;;;;;14.77;100.00;95310.41;6273259;22;20208;-86
2023/08/30 02:35:45;;;;;;;6.15;5.53;;;;;;;14.81;100.00;95299.41;6273632;22;20230;-87
2023/08/30 02:38:11;;;;;;;6.25;5.75;;;;;;;14.80;100.00;95289.25;6273772;22;20199;-87
2023/08/30 02:40:38;;;;;;;6.50;6.00;;;;;;;14.81;100.00;95296.81;6272620;22;20225;-86
2023/08/30 02:43:04;;;;;;;5.93;5.38;;;;;;;14.82;100.00;95288.00;6276019;22;20180;-87
2023/08/30 02:45:31;;;;;;;6.25;5.75;;;;;;;14.84;100.00;95301.56;6277432;22;20226;-87
2023/08/30 02:47:57;;;;;;;5.72;5.03;;;;;;;14.85;100.00;95292.78;6276969;22;20516;-84
2023/08/30 02:50:24;;;;;;;5.95;5.45;;;;;;;14.87;100.00;95297.75;6277379;22;20548;-88
2023/08/30 02:52:52;;;;;;;7.25;6.65;;;;;;;14.72;100.00;95320.59;6276737;22;20176;-87
2023/08/30 02:55:18;;;;;;;5.93;5.43;;;;;;;14.78;100.00;95317.19;6276612;22;20200;-88
2023/08/30 02:57:46;;;;;;;5.45;5.05;;;;;;;14.79;100.00;95306.59;6275398;22;20264;-87
2023/08/30 03:00:13;;;;;;;6.03;5.53;;;;;;;14.80;100.00;95310.78;6276764;22;20176;-87
2023/08/30 03:02:40;;;;;;;5.45;4.97;;;;;;;14.80;100.00;95305.59;6276069;22;20187;-85
2023/08/30 03:05:07;;;;;;;5.20;4.80;;;;;;;14.84;100.00;95303.34;6276446;22;20168;-87
2023/08/30 03:07:33;;;;;;;5.32;4.90;;;;;;;14.81;100.00;95296.81;6277031;22;20183;-84
2023/08/30 03:10:01;;;;;;;5.60;5.20;;;;;;;14.85;100.00;95295.38;6276295;22;20196;-85
2023/08/30 03:12:28;;;;;;;5.43;5.00;;;;;;;14.89;100.00;95289.78;6276539;22;20210;-86
2023/08/30 03:14:55;;;;;;;4.95;4.55;;;;;;;14.86;100.00;95289.19;6275677;22;20199;-87
2023/08/30 03:17:21;;;;;;;5.65;5.25;;;;;;;14.86;100.00;95294.38;6276696;22;20183;-85
2023/08/30 03:19:48;;;;;;;5.75;5.20;;;;;;;14.85;100.00;95305.75;6276438;22;20196;-84
2023/08/30 03:22:14;;;;;;;5.78;5.18;;;;;;;14.83;100.00;95297.38;6276084;22;20176;-87
2023/08/30 03:24:41;;;;;;;5.68;5.18;;;;;;;14.87;100.00;95302.94;6275791;22;20230;-86
2023/08/30 03:27:09;;;;;;;5.30;4.90;;;;;;;14.92;100.00;95289.34;6276197;22;20195;-85
2023/08/30 03:29:35;;;;;;;5.70;5.20;;;;;;;14.86;100.00;95290.97;6275257;22;20192;-86
2023/08/30 03:32:01;;;;;;;5.47;4.90;;;;;;;14.85;100.00;95290.19;6274732;22;20176;-87
2023/08/30 03:34:28;;;;;;;5.40;5.00;;;;;;;14.85;100.00;95285.00;6276521;22;20259;-87
2023/08/30 03:36:55;;;;;;;5.57;5.18;;;;;;;14.87;100.00;95284.81;6277128;22;20172;-88
2023/08/30 03:39:21;;;;;;;5.13;4.75;;;;;;;14.85;100.00;95282.41;6276871;22;20200;-87
2023/08/30 03:41:48;;;;;;;5.45;4.95;;;;;;;14.85;100.00;95297.97;6277295;22;20176;-88
2023/08/30 03:44:16;;;;;;;5.18;4.78;;;;;;;14.89;100.00;95293.16;6277264;22;20179;-86
2023/08/30 03:46:42;;;;;;;4.65;4.30;;;;;;;14.91;100.00;95291.16;6276482;22;20180;-87
2023/08/30 03:49:09;;;;;;;5.60;4.85;;;;;;;14.90;100.00;95296.56;6276418;22;20905;-87
2023/08/30 03:51:35;;;;;;;4.70;4.40;;;;;;;14.86;100.00;95290.97;6277121;22;20172;-87
2023/08/30 03:54:01;;;;;;;4.88;4.47;;;;;;;14.85;100.00;95307.53;6276721;22;20245;-85
2023/08/30 03:56:28;;;;;;;4.82;4.50;;;;;;;14.82;100.00;95298.38;6276026;22;20179;-86
2023/08/30 03:58:54;;;;;;;4.63;4.22;;;;;;;14.85;100.00;95290.19;6276744;22;20675;-86
2023/08/30 04:01:22;;;;;;;5.68;4.85;;;;;;;14.87;100.00;95300.34;6277572;22;20172;-84
2023/08/30 04:03:49;;;;;;;5.53;4.38;;;;;;;14.84;100.00;95293.78;6274733;22;20230;-85
2023/08/30 04:06:15;;;;;;;4.95;4.55;;;;;;;14.85;100.00;95286.81;6276159;22;20183;-87
2023/08/30 04:08:41;;;;;;;5.40;4.80;;;;;;;14.84;100.00;95286.00;6276931;22;20191;-86
2023/08/30 04:11:08;;;;;;;4.80;4.40;;;;;;;14.83;100.00;95286.22;6275656;22;20183;-85
2023/08/30 04:13:35;;;;;;;4.80;4.40;;;;;;;14.85;100.00;95297.19;6275966;22;20513;-86
2023/08/30 04:16:01;;;;;;;4.72;4.43;;;;;;;14.85;100.00;95289.41;6276255;22;20509;-85
2023/08/30 04:18:29;;;;;;;5.43;4.93;;;;;;;14.80;100.00;95297.81;6277021;22;20196;-87
2023/08/30 04:20:59;;;;;;;5.15;4.75;;;;;;;14.75;100.00;95297.66;6275027;22;20183;-87
2023/08/30 04:23:25;;;;;;;5.22;4.72;;;;;;;14.85;100.00;95300.56;6276578;22;20183;-87
2023/08/30 04:25:53;;;;;;;5.88;5.10;;;;;;;14.84;100.00;95303.34;6276598;22;20179;-87
2023/08/30 04:28:19;;;;;;;5.40;4.90;;;;;;;14.80;100.00;95299.63;6276780;22;20203;-87
2023/08/30 04:30:46;;;;;;;5.25;4.80;;;;;;;14.76;100.00;95317.38;6277161;22;20191;-86
2023/08/30 04:33:12;;;;;;;5.22;4.72;;;;;;;14.81;100.00;95316.75;6273880;22;20183;-87
2023/08/30 04:35:40;;;;;;;5.15;4.65;;;;;;;14.93;100.00;95342.81;6275222;22;20203;-89
2023/08/30 04:38:07;;;;;;;4.70;4.30;;;;;;;15.09;100.00;95355.25;6275293;22;20206;-87
2023/08/30 04:40:33;;;;;;;5.10;4.65;;;;;;;15.17;100.00;95311.72;6275250;22;20176;-88
2023/08/30 04:43:00;;;;;;;4.20;3.80;;;;;;;15.28;100.00;95330.19;6276927;22;20172;-88
2023/08/30 04:45:26;;;;;;;4.75;4.30;;;;;;;15.38;100.00;95315.75;6276228;22;20173;-87
2023/08/30 04:47:52;;;;;;;5.05;4.65;;;;;;;15.43;100.00;95283.94;6275429;22;20642;-88
2023/08/30 04:50:19;;;;;;;4.88;4.57;;;;;;;15.44;100.00;95238.84;6275116;22;20647;-86
2023/08/30 04:52:47;;;;;;;5.13;4.72;;;;;;;15.35;100.00;95225.38;6271144;22;20590;-84
2023/08/30 04:55:13;;;;;;;5.32;4.90;;;;;;;15.25;100.00;95227.66;6274494;22;20199;-86
2023/08/30 04:57:44;;;;;;;5.30;4.90;;;;;;;15.18;100.00;95230.31;6273064;22;20183;-84
2023/08/30 05:00:12;;;;;;;5.85;5.35;;;;;;;15.05;100.00;95245.97;6274326;22;20192;-85
2023/08/30 05:02:38;;;;;;;5.40;4.95;;;;;;;15.04;100.00;95249.56;6273822;22;20176;-85
2023/08/30 05:05:05;;;;;;;5.00;4.60;;;;;;;15.00;100.00;95250.22;6273953;22;20172;-83
2023/08/30 05:07:32;;;;;;;5.75;5.10;;;;;;;14.96;100.00;95251.66;6273697;22;20180;-86
2023/08/30 05:09:59;;;;;;;5.60;5.10;;;;;;;14.93;100.00;95254.66;6273888;22;20196;-83
2023/08/30 05:12:26;;;;;;;5.88;5.25;;;;;;;14.86;100.00;95260.69;6274267;22;20176;-84
2023/08/30 05:14:52;;;;;;;7.78;5.95;;;;;;;14.88;100.00;95263.06;6274185;22;20197;-85
2023/08/30 05:17:19;;;;;;;12.00;7.38;;;;;;;14.89;100.00;95274.22;6275060;22;20180;-88
2023/08/30 05:19:45;;;;;;;9.55;6.70;;;;;;;14.79;100.00;95267.72;6274985;22;20266;-87
2023/08/30 05:22:12;;;;;;;8.15;5.28;;;;;;;14.81;100.00;95283.88;6274240;22;20187;-85
2023/08/30 05:24:42;;;;;;;5.70;5.20;;;;;;;14.75;100.00;95284.69;6274383;22;20226;-85
2023/08/30 05:27:14;;;;;;;9.18;8.38;;;;;;;14.80;100.00;95284.88;6274564;22;20239;-86
2023/08/30 05:29:41;;;;;;;10.02;9.13;;;;;;;14.82;100.00;95282.81;6274165;22;20196;-84
2023/08/30 05:32:07;;;;;;;6.82;6.28;;;;;;;14.81;100.00;95277.88;6274911;22;20508;-86
2023/08/30 05:34:36;;;;;;;6.30;5.70;;;;;;;14.87;100.00;95284.81;6273981;22;20196;-84
2023/08/30 05:37:03;;;;;;;7.70;7.05;;;;;;;14.89;100.00;95289.78;6273592;22;20179;-85
2023/08/30 05:39:30;;;;;;;20.48;18.38;;;;;;;14.95;100.00;95287.16;6274404;22;20203;-85
2023/08/30 05:42:00;;;;;;;17.00;15.40;;;;;;;14.96;100.00;95282.75;6273270;22;20176;-86
2023/08/30 05:44:31;;;;;;;6.85;6.35;;;;;;;14.96;100.00;95280.97;6274184;22;20152;-83
2023/08/30 05:46:57;;;;;;;6.07;5.57;;;;;;;15.00;100.00;95270.97;6273563;22;20540;-83
2023/08/30 05:49:24;;;;;;;5.50;4.90;;;;;;;14.98;100.00;95273.78;6273856;22;20195;-85
2023/08/30 05:51:50;;;;;;;7.70;5.35;;;;;;;15.04;100.00;95282.47;6272873;22;20183;-84
2023/08/30 05:54:16;;;;;;;6.82;5.13;;;;;;;15.04;100.00;95278.09;6273171;22;20179;-85
2023/08/30 05:56:44;;;;;;;4.95;4.65;;;;;;;15.05;100.00;95265.91;6272389;22;20505;-84
2023/08/30 05:59:10;;;;;;;5.50;5.00;;;;;;;15.03;100.00;95268.72;6273343;22;20200;-84
2023/08/30 06:01:42;;;;;;;5.30;4.90;;;;;;;15.06;100.00;95275.28;6273752;22;20176;-85
2023/08/30 06:04:08;;;;;;;5.43;4.90;;;;;;;15.05;100.00;95271.91;6273651;22;20161;-84
2023/08/30 06:06:35;;;;;;;5.07;4.68;;;;;;;15.08;100.00;95274.06;6273377;22;20255;-86
2023/08/30 06:09:01;;;;;;;5.32;4.80;;;;;;;15.05;100.00;95271.09;6273453;22;20192;-84
2023/08/30 06:11:27;;;;;;;4.97;4.57;;;;;;;15.08;100.00;95273.28;6273755;22;20210;-85
2023/08/30 06:13:54;;;;;;;5.57;5.07;;;;;;;15.11;100.00;95272.88;6273035;22;20172;-86
2023/08/30 06:16:21;;;;;;;5.60;5.10;;;;;;;15.13;100.00;95283.81;6274010;22;20196;-85
2023/08/30 06:18:49;;;;;;;5.35;4.95;;;;;;;15.16;100.00;95280.81;6273523;22;20191;-87
2023/08/30 06:21:15;;;;;;;5.82;5.32;;;;;;;15.15;100.00;95290.38;6274217;22;20172;-84
2023/08/30 06:23:41;;;;;;;5.97;5.47;;;;;;;15.09;100.00;95283.44;6273620;22;20176;-87
2023/08/30 06:26:08;;;;;;;5.53;5.07;;;;;;;15.12;100.00;95292.59;6273840;22;20180;-87
2023/08/30 06:28:34;;;;;;;5.47;4.97;;;;;;;15.10;100.00;95295.41;6273483;22;20196;-85
2023/08/30 06:31:01;;;;;;;5.80;5.13;;;;;;;15.01;100.00;95288.88;6275802;22;20178;-85
2023/08/30 06:33:27;;;;;;;5.60;5.20;;;;;;;15.04;100.00;95285.88;6275295;22;20183;-83
2023/08/30 06:35:56;;;;;;;5.22;4.70;;;;;;;15.08;100.00;95288.84;6273765;22;20219;-88
2023/08/30 06:38:24;;;;;;;5.40;5.00;;;;;;;15.09;100.00;95280.06;6274050;22;20279;-87
2023/08/30 06:40:50;;;;;;;5.20;4.72;;;;;;;15.11;100.00;95281.44;6274510;22;20200;-84
2023/08/30 06:43:19;;;;;;;5.50;5.00;;;;;;;15.14;100.00;95272.44;6274098;22;20176;-85
2023/08/30 06:45:46;;;;;;;5.25;4.75;;;;;;;15.20;100.00;95276.78;6273734;22;20573;-85
2023/08/30 06:48:13;;;;;;;5.68;5.13;;;;;;;15.19;100.00;95267.41;6274149;22;20230;-84
2023/08/30 06:50:39;;;;;;;4.90;4.57;;;;;;;15.17;100.00;95265.03;6272539;22;20689;-85
2023/08/30 06:53:07;;;;;;;5.25;4.85;;;;;;;15.21;100.00;95267.97;6272196;22;20174;-84
2023/08/30 06:55:35;;;;;;;5.78;5.30;;;;;;;15.17;100.00;95280.59;6271935;22;20203;-88
2023/08/30 06:58:02;;;;;;;5.80;5.30;;;;;;;15.09;100.00;95274.88;6271997;22;20188;-83
2023/08/30 07:00:29;;;;;;;5.85;5.25;;;;;;;15.04;100.00;95262.53;6272546;22;20262;-83
2023/08/30 07:02:56;;;;;;;6.07;5.00;;;;;;;15.08;100.00;95271.47;6272263;22;20218;-84
2023/08/30 07:05:23;;;;;;;5.50;5.07;;;;;;;15.15;100.00;95277.41;6270349;22;20182;-84
2023/08/30 07:07:49;;;;;;;5.97;5.47;;;;;;;15.16;100.00;95278.22;6271373;22;20183;-86
2023/08/30 07:10:17;;;;;;;5.90;5.40;;;;;;;15.19;100.00;95273.41;6272886;22;20180;-86
2023/08/30 07:12:45;;;;;;;6.60;5.80;;;;;;;15.20;100.00;95277.56;6271807;22;20176;-84
2023/08/30 07:15:11;;;;;;;5.93;5.43;;;;;;;15.23;100.00;95276.34;6272107;22;20199;-84
2023/08/30 07:17:40;;;;;;;6.10;5.50;;;;;;;15.25;100.00;95274.34;6272354;22;20234;-84
2023/08/30 07:20:08;;;;;;;5.97;5.47;;;;;;;15.26;100.00;95270.72;6272318;22;20756;-84
2023/08/30 07:22:34;;;;;;;6.53;5.90;;;;;;;15.25;100.00;95282.13;6271895;22;20172;-84
2023/08/30 07:25:02;;;;;;;5.80;5.30;;;;;;;15.28;100.00;95288.69;6272240;22;20177;-84
2023/08/30 07:27:33;;;;;;;6.40;5.80;;;;;;;15.28;100.00;95291.28;6272682;22;20176;-85
2023/08/30 07:30:00;;;;;;;6.70;6.10;;;;;;;15.27;100.00;95271.53;6272824;22;20558;-85
2023/08/30 07:32:27;;;;;;;6.15;5.65;;;;;;;15.29;100.00;95272.91;6272828;22;20172;-85
2023/08/30 07:34:53;;;;;;;6.32;5.75;;;;;;;15.30;100.00;95276.28;6271298;22;20184;-84
2023/08/30 07:37:20;;;;;;;6.00;5.50;;;;;;;15.36;100.00;95272.84;6272556;22;20183;-84
2023/08/30 07:39:47;;;;;;;6.43;5.82;;;;;;;15.37;100.00;95270.06;6273182;22;20192;-85
2023/08/30 07:42:14;;;;;;;6.80;6.07;;;;;;;15.44;100.00;95270.75;6273145;22;20180;-84
2023/08/30 07:44:42;;;;;;;6.13;5.55;;;;;;;15.48;100.00;95274.53;6272841;22;20185;-85
2023/08/30 07:47:08;;;;;;;7.30;6.70;;;;;;;15.52;100.00;95272.31;6272316;22;20509;-86
2023/08/30 07:49:35;;;;;;;6.97;6.47;;;;;;;15.50;100.00;95277.69;6272001;22;20204;-86
2023/08/30 07:52:01;;;;;;;7.60;7.00;;;;;;;15.53;100.00;95266.09;6270921;22;20164;-83
2023/08/30 07:54:28;;;;;;;8.05;7.35;;;;;;;15.47;100.00;95282.53;6271549;22;20183;-84
2023/08/30 07:56:55;;;;;;;7.88;7.28;;;;;;;15.50;100.00;95306.25;6270038;22;20196;-85
2023/08/30 07:59:21;;;;;;;7.00;6.50;;;;;;;15.50;100.00;95306.25;6272527;22;20204;-85
2023/08/30 08:01:51;;;;;;;7.15;6.55;;;;;;;15.51;100.00;95314.81;6272516;22;20172;-84
2023/08/30 08:04:17;;;;;;;7.50;6.80;;;;;;;15.57;100.00;95311.41;6271384;22;20179;-85
2023/08/30 08:06:44;;;;;;;7.03;6.35;;;;;;;15.63;100.00;95292.38;6272299;22;20176;-85
2023/08/30 08:09:10;;;;;;;7.53;6.82;;;;;;;15.65;100.00;95285.16;6270960;22;20578;-84
2023/08/30 08:11:37;;;;;;;7.65;7.00;;;;;;;15.70;100.00;95277.53;6272254;22;20176;-84
2023/08/30 08:14:03;;;;;;;7.60;6.93;;;;;;;15.73;100.00;95260.75;6273324;22;20249;-84
2023/08/30 08:16:30;;;;;;;7.28;6.68;;;;;;;15.78;100.00;95247.88;6271700;22;20192;-85
2023/08/30 08:18:59;;;;;;;7.63;7.03;;;;;;;15.77;100.00;95286.06;6271330;22;20201;-84
2023/08/30 08:21:25;;;;;;;7.60;6.75;;;;;;;15.85;100.00;95288.34;6274011;22;20200;-85
2023/08/30 08:23:52;;;;;;;7.95;7.22;;;;;;;15.88;100.00;95287.13;6271813;22;20486;-85
2023/08/30 08:26:18;;;;;;;7.65;7.05;;;;;;;15.94;100.00;95280.28;6273896;22;20172;-84
2023/08/30 08:28:45;;;;;;;7.70;7.10;;;;;;;16.00;100.00;95266.41;6273686;22;20262;-84
2023/08/30 08:31:11;;;;;;;7.78;7.07;;;;;;;16.08;100.00;95250.56;6273828;22;20184;-85
2023/08/30 08:33:38;;;;;;;7.30;6.70;;;;;;;16.25;100.00;95248.94;6274205;22;20601;-84
2023/08/30 08:36:06;;;;;;;7.43;6.82;;;;;;;16.40;99.18;95238.94;6273125;22;20635;-85
2023/08/30 08:38:32;;;;;;;7.80;7.15;;;;;;;16.38;95.30;95190.78;6273083;22;20203;-85
2023/08/30 08:41:03;;;;;;;7.05;6.45;;;;;;;16.47;93.16;95159.09;6273257;22;20634;-84
2023/08/30 08:43:30;;;;;;;7.70;7.00;;;;;;;16.52;93.07;95153.22;6274014;22;20156;-84
2023/08/30 08:46:00;;;;;;;7.15;6.63;;;;;;;16.69;93.21;95150.78;6273279;22;20169;-86
2023/08/30 08:48:29;;;;;;;7.15;6.53;;;;;;;16.77;92.68;95151.22;6273333;22;20211;-86
2023/08/30 08:50:56;;;;;;;7.60;7.00;;;;;;;16.84;93.61;95157.13;6272835;22;20179;-86
2023/08/30 08:53:24;;;;;;;6.18;5.70;;;;;;;16.80;91.97;95135.19;6273742;22;20176;-87
2023/08/30 08:55:52;;;;;;;7.22;6.10;;;;;;;16.67;89.61;95090.44;6271798;22;20199;-85
2023/08/30 08:58:18;;;;;;;6.20;5.68;;;;;;;16.69;89.97;95085.78;6271870;22;20204;-84
2023/08/30 09:00:48;;;;;;;6.40;5.70;;;;;;;16.77;89.81;95096.63;6270553;22;20172;-85
2023/08/30 09:03:16;;;;;;;5.72;5.30;;;;;;;16.93;88.58;95079.56;6271115;22;20176;-85
2023/08/30 09:05:43;;;;;;;6.43;5.93;;;;;;;17.01;88.50;95079.19;6270887;22;20175;-86
2023/08/30 09:08:13;;;;;;;6.15;5.65;;;;;;;17.08;87.30;95063.47;6271655;22;20183;-86
2023/08/30 09:10:41;;;;;;;6.05;5.55;;;;;;;17.27;86.89;95046.69;6270745;22;20180;-85
2023/08/30 09:13:07;;;;;;;5.88;5.38;;;;;;;17.57;84.63;95004.81;6272336;22;20172;-85
2023/08/30 09:15:36;;;;;;;5.93;5.43;;;;;;;17.50;85.44;95012.00;6273229;22;20199;-85
2023/08/30 09:18:03;;;;;;;4.97;4.50;;;;;;;17.49;82.89;94968.78;6273643;22;20207;-84
2023/08/30 09:20:30;;;;;;;4.93;4.53;;;;;;;17.53;78.95;94879.53;6273087;22;20176;-86
2023/08/30 09:22:56;;;;;;;5.10;4.60;;;;;;;17.63;79.35;94878.13;6272900;22;20207;-85
2023/08/30 09:25:29;;;;;;;5.40;4.90;;;;;;;18.07;80.36;94918.94;6271929;22;20184;-85
2023/08/30 09:28:00;;;;;;;4.57;4.28;;;;;;;18.75;76.91;94847.31;6272333;22;20164;-85
2023/08/30 09:30:27;;;;;;;4.90;4.50;;;;;;;19.06;74.15;94777.16;6272208;22;20172;-85
2023/08/30 09:32:54;;;;;;;4.30;4.00;;;;;;;19.32;72.69;94739.78;6273268;22;20234;-84
2023/08/30 09:35:20;;;;;;;4.68;4.13;;;;;;;19.32;70.86;94670.09;6274390;22;20180;-86
2023/08/30 09:37:47;;;;;;;4.10;3.70;;;;;;;19.43;70.54;94672.78;6274437;22;20644;-84
2023/08/30 09:40:20;;;;;;;3.90;3.50;;;;;;;19.82;69.23;94644.50;6274006;22;20207;-86
2023/08/30 09:42:47;;;;;;;5.32;3.00;;;;;;;19.99;66.54;94548.38;6273336;22;20161;-85
2023/08/30 09:45:22;;;;;;;3.17;2.90;;;;;;;19.87;65.83;94514.66;6271654;22;20172;-86
2023/08/30 09:47:51;;;;;;;2.80;2.60;;;;;;;20.12;65.86;94524.34;6272151;22;20857;-85
2023/08/30 09:50:19;;;;;;;3.10;2.72;;;;;;;20.27;65.22;94515.69;6271995;22;20199;-85
2023/08/30 09:52:47;;;;;;;3.80;2.83;;;;;;;20.27;65.86;94540.00;6272324;22;20246;-85
2023/08/30 09:55:15;;;;;;;2.53;2.33;;;;;;;20.20;66.88;94565.66;6273077;22;20176;-86
2023/08/30 09:57:43;;;;;;;3.83;2.40;;;;;;;19.88;66.96;94559.84;6271503;22;20200;-84
2023/08/30 10:00:12;;;;;;;2.88;2.33;;;;;;;19.52;68.13;94585.88;6271781;22;20222;-85
2023/08/30 10:02:46;;;;;;;2.35;2.25;;;;;;;19.25;68.91;94613.94;6270849;22;20172;-86
2023/08/30 10:05:13;;;;;;;2.28;2.08;;;;;;;19.03;68.34;94585.41;6271983;22;20175;-85
2023/08/30 10:07:40;;;;;;;2.42;2.22;;;;;;;19.06;69.64;94631.06;6272434;22;20168;-84
2023/08/30 10:10:07;;;;;;;2.88;2.17;;;;;;;19.00;70.82;94666.00;6271277;22;20729;-85
2023/08/30 10:12:34;;;;;;;2.22;2.03;;;;;;;18.91;68.95;94606.47;6271751;22;20779;-84
2023/08/30 10:15:00;;;;;;;4.78;2.00;;;;;;;18.82;69.05;94586.34;6272006;22;20172;-85
2023/08/30 10:17:28;;;;;;;3.25;2.20;;;;;;;18.58;70.51;94643.22;6271509;22;20196;-84
2023/08/30 10:19:57;;;;;;;2.22;1.88;;;;;;;18.44;71.01;94655.91;6270778;22;20196;-85
2023/08/30 10:22:24;;;;;;;2.10;2.00;;;;;;;18.20;71.57;94671.06;6271372;22;20659;-84
2023/08/30 10:24:55;;;;;;;2.53;2.33;;;;;;;18.04;71.82;94679.75;6272104;22;20180;-84
2023/08/30 10:27:23;;;;;;;2.35;2.15;;;;;;;18.03;73.49;94714.66;6272047;22;20609;-85
2023/08/30 10:29:51;;;;;;;2.25;2.03;;;;;;;18.07;73.59;94727.97;6271891;22;20199;-85
2023/08/30 10:32:20;;;;;;;2.30;2.10;;;;;;;18.39;72.43;94701.97;6271726;22;20207;-85
2023/08/30 10:34:49;;;;;;;2.40;2.20;;;;;;;18.40;70.39;94633.97;6271039;22;20172;-85
2023/08/30 10:37:23;;;;;;;2.47;2.28;;;;;;;18.28;68.57;94573.38;6271638;22;20269;-85
2023/08/30 10:39:54;;;;;;;1.85;1.75;;;;;;;18.36;70.58;94629.50;6272003;22;20195;-84
2023/08/30 10:42:24;;;;;;;4.05;2.92;;;;;;;18.41;69.81;94621.72;6271752;22;20629;-84
2023/08/30 10:44:51;;;;;;;2.47;2.10;;;;;;;18.36;67.11;94533.06;6271097;22;20178;-84
2023/08/30 10:47:21;;;;;;;2.28;1.98;;;;;;;18.29;65.04;94447.28;6271416;22;20172;-85
2023/08/30 10:49:48;;;;;;;2.17;1.80;;;;;;;18.27;64.33;94407.69;6270800;22;20204;-85
2023/08/30 10:52:14;;;;;;;1.90;1.80;;;;;;;18.47;65.33;94451.31;6271846;22;20207;-85
2023/08/30 10:54:42;;;;;;;2.55;1.95;;;;;;;18.80;63.35;94392.81;6271105;22;20515;-85
2023/08/30 10:57:14;;;;;;;1.75;1.58;;;;;;;19.10;62.35;94363.38;6270436;22;20192;-85
2023/08/30 10:59:41;;;;;;;2.65;1.80;;;;;;;19.19;61.54;94326.09;6271460;22;20207;-85
2023/08/30 11:02:08;;;;;;;1.85;1.67;;;;;;;19.31;61.54;94320.59;6271733;22;20210;-84
2023/08/30 11:04:41;;;;;;;2.70;1.70;;;;;;;19.39;61.90;94327.91;6272627;22;20182;-85
2023/08/30 11:07:07;;;;;;;2.17;1.60;;;;;;;19.50;61.48;94329.50;6271211;22;20221;-85
2023/08/30 11:09:34;;;;;;;1.90;1.70;;;;;;;19.70;61.15;94314.84;6271617;22;20207;-85
2023/08/30 11:12:06;;;;;;;1.73;1.40;;;;;;;19.80;60.36;94276.44;6271753;22;20180;-85
2023/08/30 11:14:32;;;;;;;1.50;1.40;;;;;;;19.82;59.38;94229.94;6273143;22;20160;-83
2023/08/30 11:16:59;;;;;;;1.55;1.38;;;;;;;19.93;60.14;94241.91;6272029;22;20199;-85
2023/08/30 11:19:31;;;;;;;1.75;1.42;;;;;;;20.10;60.07;94266.94;6271934;22;20250;-84
2023/08/30 11:21:59;;;;;;;1.52;1.33;;;;;;;19.93;59.99;94256.81;6271162;22;20169;-86
2023/08/30 11:24:25;;;;;;;1.48;1.38;;;;;;;20.00;59.19;94224.13;6271856;22;20183;-86
2023/08/30 11:26:56;;;;;;;2.55;1.40;;;;;;;20.10;59.70;94231.13;6271173;22;20176;-87
2023/08/30 11:29:23;;;;;;;1.40;1.30;;;;;;;20.06;58.98;94188.28;6270248;22;20188;-85